sensor_id;sensor_type;location;lat;lon;timestamp;temperature;humidity
7000;DHT22;3540;53.242;10.408;2023-05-24T00:01:16;8.20;99.90
7000;DHT22;3540;53.242;10.408;2023-05-24T00:03:53;8.10;99.90
7000;DHT22;3540;53.242;10.408;2023-05-24T00:06:19;8.10;99.90
7000;DHT22;3540;53.242;10.408;2023-05-24T00:08:45;8.10;99.90
7000;DHT22;3540;53.242;10.408;2023-05-24T00:11:11;8.10;99.90
7000;DHT22;3540;53.242;10.408;2023-05-24T00:13:37;8.10;99.90
7000;DHT22;3540;53.242;10.408;2023-05-24T00:16:03;8.10;99.90
7000;DHT22;3540;53.242;10.408;2023-05-24T00:18:29;8.00;99.90
7000;DHT22;3540;53.242;10.408;2023-05-24T00:20:58;8.10;99.90
7000;DHT22;3540;53.242;10.408;2023-05-24T00:23:26;8.10;99.90
7000;DHT22;3540;53.242;10.408;2023-05-24T00:25:52;8.00;99.90
7000;DHT22;3540;53.242;10.408;2023-05-24T00:28:18;8.00;99.90
7000;DHT22;3540;53.242;10.408;2023-05-24T00:30:43;8.00;99.90
7000;DHT22;3540;53.242;10.408;2023-05-24T00:33:09;8.10;99.90
7000;DHT22;3540;53.242;10.408;2023-05-24T00:35:34;8.10;99.90
7000;DHT22;3540;53.242;10.408;2023-05-24T00:38:00;8.10;99.90
7000;DHT22;3540;53.242;10.408;2023-05-24T00:40:26;8.10;99.90
7000;DHT22;3540;53.242;10.408;2023-05-24T00:42:51;8.10;99.90
7000;DHT22;3540;53.242;10.408;2023-05-24T00:45:17;8.20;99.90
7000;DHT22;3540;53.242;10.408;2023-05-24T00:47:43;8.20;99.90
7000;DHT22;3540;53.242;10.408;2023-05-24T00:50:10;8.20;99.90
7000;DHT22;3540;53.242;10.408;2023-05-24T00:52:39;8.30;99.90
7000;DHT22;3540;53.242;10.408;2023-05-24T00:55:06;8.30;99.90
7000;DHT22;3540;53.242;10.408;2023-05-24T00:57:33;8.40;99.90
7000;DHT22;3540;53.242;10.408;2023-05-24T01:00:00;8.40;99.90
7000;DHT22;3540;53.242;10.408;2023-05-24T01:02:26;8.30;99.90
7000;DHT22;3540;53.242;10.408;2023-05-24T01:04:52;8.40;99.90
7000;DHT22;3540;53.242;10.408;2023-05-24T01:10:44;8.40;99.90
7000;DHT22;3540;53.242;10.408;2023-05-24T01:16:17;8.50;99.90
7000;DHT22;3540;53.242;10.408;2023-05-24T01:18:49;8.50;99.90
7000;DHT22;3540;53.242;10.408;2023-05-24T01:27:21;8.60;99.90
7000;DHT22;3540;53.242;10.408;2023-05-24T01:29:47;8.60;99.90
7000;DHT22;3540;53.242;10.408;2023-05-24T01:32:18;8.60;99.90
7000;DHT22;3540;53.242;10.408;2023-05-24T01:34:44;8.60;99.90
7000;DHT22;3540;53.242;10.408;2023-05-24T01:37:10;8.60;99.90
7000;DHT22;3540;53.242;10.408;2023-05-24T01:39:35;8.60;99.90
7000;DHT22;3540;53.242;10.408;2023-05-24T01:44:48;8.60;99.90
7000;DHT22;3540;53.242;10.408;2023-05-24T01:47:42;8.60;99.90
7000;DHT22;3540;53.242;10.408;2023-05-24T01:50:18;8.60;99.90
7000;DHT22;3540;53.242;10.408;2023-05-24T01:52:49;8.60;99.90
7000;DHT22;3540;53.242;10.408;2023-05-24T01:55:17;8.70;99.90
7000;DHT22;3540;53.242;10.408;2023-05-24T01:57:45;8.60;99.90
7000;DHT22;3540;53.242;10.408;2023-05-24T02:00:13;8.60;99.90
7000;DHT22;3540;53.242;10.408;2023-05-24T02:02:40;8.70;99.90
7000;DHT22;3540;53.242;10.408;2023-05-24T02:05:06;8.60;99.90
7000;DHT22;3540;53.242;10.408;2023-05-24T02:07:32;8.60;99.90
7000;DHT22;3540;53.242;10.408;2023-05-24T02:09:57;8.60;99.90
7000;DHT22;3540;53.242;10.408;2023-05-24T02:12:23;8.60;99.90
7000;DHT22;3540;53.242;10.408;2023-05-24T02:14:48;8.70;99.90
7000;DHT22;3540;53.242;10.408;2023-05-24T02:17:18;8.70;99.90
7000;DHT22;3540;53.242;10.408;2023-05-24T02:19:44;8.60;99.90
7000;DHT22;3540;53.242;10.408;2023-05-24T02:22:09;8.70;99.90
7000;DHT22;3540;53.242;10.408;2023-05-24T02:24:36;8.70;99.90
7000;DHT22;3540;53.242;10.408;2023-05-24T02:27:05;8.70;99.90
7000;DHT22;3540;53.242;10.408;2023-05-24T02:29:30;8.60;99.90
7000;DHT22;3540;53.242;10.408;2023-05-24T02:31:56;8.60;99.90
7000;DHT22;3540;53.242;10.408;2023-05-24T02:34:22;8.60;99.90
7000;DHT22;3540;53.242;10.408;2023-05-24T02:36:49;8.70;99.90
7000;DHT22;3540;53.242;10.408;2023-05-24T02:39:14;8.80;99.90
7000;DHT22;3540;53.242;10.408;2023-05-24T02:41:40;8.80;99.90
7000;DHT22;3540;53.242;10.408;2023-05-24T02:44:06;8.70;99.90
7000;DHT22;3540;53.242;10.408;2023-05-24T02:46:32;8.70;99.90
7000;DHT22;3540;53.242;10.408;2023-05-24T02:48:57;8.70;99.90
7000;DHT22;3540;53.242;10.408;2023-05-24T02:51:23;8.70;99.90
7000;DHT22;3540;53.242;10.408;2023-05-24T02:53:49;8.70;99.90
7000;DHT22;3540;53.242;10.408;2023-05-24T02:56:15;8.70;99.90
7000;DHT22;3540;53.242;10.408;2023-05-24T02:58:43;8.70;99.90
7000;DHT22;3540;53.242;10.408;2023-05-24T03:01:10;8.70;99.90
7000;DHT22;3540;53.242;10.408;2023-05-24T03:03:37;8.70;99.90
7000;DHT22;3540;53.242;10.408;2023-05-24T03:06:04;8.70;99.90
7000;DHT22;3540;53.242;10.408;2023-05-24T03:08:31;8.70;99.90
7000;DHT22;3540;53.242;10.408;2023-05-24T03:10:57;8.70;99.90
7000;DHT22;3540;53.242;10.408;2023-05-24T03:13:23;8.70;99.90
7000;DHT22;3540;53.242;10.408;2023-05-24T03:15:49;8.80;99.90
7000;DHT22;3540;53.242;10.408;2023-05-24T03:18:14;8.80;99.90
7000;DHT22;3540;53.242;10.408;2023-05-24T03:20:40;8.80;99.90
7000;DHT22;3540;53.242;10.408;2023-05-24T03:23:06;8.80;99.90
7000;DHT22;3540;53.242;10.408;2023-05-24T03:25:31;8.80;99.90
7000;DHT22;3540;53.242;10.408;2023-05-24T03:27:57;8.90;99.90
7000;DHT22;3540;53.242;10.408;2023-05-24T03:30:23;8.90;99.90
7000;DHT22;3540;53.242;10.408;2023-05-24T03:32:48;8.90;99.90
7000;DHT22;3540;53.242;10.408;2023-05-24T03:35:14;8.90;99.90
7000;DHT22;3540;53.242;10.408;2023-05-24T03:37:39;9.00;99.90
7000;DHT22;3540;53.242;10.408;2023-05-24T03:40:06;8.90;99.90
7000;DHT22;3540;53.242;10.408;2023-05-24T03:42:32;8.90;99.90
7000;DHT22;3540;53.242;10.408;2023-05-24T03:44:57;8.90;99.90
7000;DHT22;3540;53.242;10.408;2023-05-24T03:47:23;8.90;99.90
7000;DHT22;3540;53.242;10.408;2023-05-24T03:49:48;8.90;99.90
7000;DHT22;3540;53.242;10.408;2023-05-24T03:52:14;8.90;99.90
7000;DHT22;3540;53.242;10.408;2023-05-24T03:54:40;8.90;99.90
7000;DHT22;3540;53.242;10.408;2023-05-24T03:57:06;8.90;99.90
7000;DHT22;3540;53.242;10.408;2023-05-24T03:59:31;8.90;99.90
7000;DHT22;3540;53.242;10.408;2023-05-24T04:01:57;8.90;99.90
7000;DHT22;3540;53.242;10.408;2023-05-24T04:04:22;9.00;99.90
7000;DHT22;3540;53.242;10.408;2023-05-24T04:06:48;9.00;99.90
7000;DHT22;3540;53.242;10.408;2023-05-24T04:09:14;9.00;99.90
7000;DHT22;3540;53.242;10.408;2023-05-24T04:11:40;9.00;99.90
7000;DHT22;3540;53.242;10.408;2023-05-24T04:14:06;9.00;99.90
7000;DHT22;3540;53.242;10.408;2023-05-24T04:16:31;9.00;99.90
7000;DHT22;3540;53.242;10.408;2023-05-24T04:18:58;9.00;99.90
7000;DHT22;3540;53.242;10.408;2023-05-24T04:21:26;9.00;99.90
7000;DHT22;3540;53.242;10.408;2023-05-24T04:23:52;9.10;99.90
7000;DHT22;3540;53.242;10.408;2023-05-24T04:26:18;9.10;99.90
7000;DHT22;3540;53.242;10.408;2023-05-24T04:28:45;9.20;99.90
7000;DHT22;3540;53.242;10.408;2023-05-24T04:31:11;9.30;99.90
7000;DHT22;3540;53.242;10.408;2023-05-24T04:33:36;9.20;99.90
7000;DHT22;3540;53.242;10.408;2023-05-24T04:36:04;9.20;99.90
7000;DHT22;3540;53.242;10.408;2023-05-24T04:38:29;9.20;99.90
7000;DHT22;3540;53.242;10.408;2023-05-24T04:40:57;9.20;99.90
7000;DHT22;3540;53.242;10.408;2023-05-24T04:43:24;9.30;99.90
7000;DHT22;3540;53.242;10.408;2023-05-24T04:45:53;9.20;99.90
7000;DHT22;3540;53.242;10.408;2023-05-24T04:48:20;9.20;99.90
7000;DHT22;3540;53.242;10.408;2023-05-24T04:50:53;9.30;99.90
7000;DHT22;3540;53.242;10.408;2023-05-24T04:53:20;9.30;99.90
7000;DHT22;3540;53.242;10.408;2023-05-24T04:55:46;9.30;99.90
7000;DHT22;3540;53.242;10.408;2023-05-24T04:58:12;9.30;99.90
7000;DHT22;3540;53.242;10.408;2023-05-24T05:00:38;9.30;99.90
7000;DHT22;3540;53.242;10.408;2023-05-24T05:03:04;9.30;99.90
7000;DHT22;3540;53.242;10.408;2023-05-24T05:05:30;9.20;99.90
7000;DHT22;3540;53.242;10.408;2023-05-24T05:07:56;9.20;99.90
7000;DHT22;3540;53.242;10.408;2023-05-24T05:10:22;9.20;99.90
7000;DHT22;3540;53.242;10.408;2023-05-24T05:12:47;9.20;99.90
7000;DHT22;3540;53.242;10.408;2023-05-24T05:15:13;9.30;99.90
7000;DHT22;3540;53.242;10.408;2023-05-24T05:17:39;9.30;99.90
7000;DHT22;3540;53.242;10.408;2023-05-24T05:20:05;9.20;99.90
7000;DHT22;3540;53.242;10.408;2023-05-24T05:22:31;9.20;99.90
7000;DHT22;3540;53.242;10.408;2023-05-24T05:24:57;9.30;99.90
7000;DHT22;3540;53.242;10.408;2023-05-24T05:27:22;9.30;99.90
7000;DHT22;3540;53.242;10.408;2023-05-24T05:29:48;9.40;99.90
7000;DHT22;3540;53.242;10.408;2023-05-24T05:32:14;9.40;99.90
7000;DHT22;3540;53.242;10.408;2023-05-24T05:34:40;9.40;99.90
7000;DHT22;3540;53.242;10.408;2023-05-24T05:37:06;9.50;99.90
7000;DHT22;3540;53.242;10.408;2023-05-24T05:39:31;9.50;99.90
7000;DHT22;3540;53.242;10.408;2023-05-24T05:41:57;9.60;99.90
7000;DHT22;3540;53.242;10.408;2023-05-24T05:44:23;9.60;99.90
7000;DHT22;3540;53.242;10.408;2023-05-24T05:46:48;9.70;99.90
7000;DHT22;3540;53.242;10.408;2023-05-24T05:49:15;9.70;99.90
7000;DHT22;3540;53.242;10.408;2023-05-24T05:51:43;9.80;99.90
7000;DHT22;3540;53.242;10.408;2023-05-24T05:54:09;9.90;99.90
7000;DHT22;3540;53.242;10.408;2023-05-24T05:56:40;9.90;99.90
7000;DHT22;3540;53.242;10.408;2023-05-24T05:59:10;9.90;99.90
7000;DHT22;3540;53.242;10.408;2023-05-24T06:01:36;9.90;99.90
7000;DHT22;3540;53.242;10.408;2023-05-24T06:04:02;9.80;99.90
7000;DHT22;3540;53.242;10.408;2023-05-24T06:06:27;9.90;99.90
7000;DHT22;3540;53.242;10.408;2023-05-24T06:08:53;10.00;99.90
7000;DHT22;3540;53.242;10.408;2023-05-24T06:11:19;10.00;99.90
7000;DHT22;3540;53.242;10.408;2023-05-24T06:13:45;10.10;99.90
7000;DHT22;3540;53.242;10.408;2023-05-24T06:16:11;10.20;99.90
7000;DHT22;3540;53.242;10.408;2023-05-24T06:18:36;10.10;99.90
7000;DHT22;3540;53.242;10.408;2023-05-24T06:21:02;10.10;99.90
7000;DHT22;3540;53.242;10.408;2023-05-24T06:23:28;10.10;99.90
7000;DHT22;3540;53.242;10.408;2023-05-24T06:25:54;10.00;99.90
7000;DHT22;3540;53.242;10.408;2023-05-24T06:28:20;10.00;99.90
7000;DHT22;3540;53.242;10.408;2023-05-24T06:30:47;10.00;99.90
7000;DHT22;3540;53.242;10.408;2023-05-24T06:33:12;10.10;99.90
7000;DHT22;3540;53.242;10.408;2023-05-24T06:35:38;10.00;99.90
7000;DHT22;3540;53.242;10.408;2023-05-24T06:38:03;10.10;99.90
7000;DHT22;3540;53.242;10.408;2023-05-24T06:40:29;10.20;99.90
7000;DHT22;3540;53.242;10.408;2023-05-24T06:42:55;10.30;99.90
7000;DHT22;3540;53.242;10.408;2023-05-24T06:45:22;10.40;99.90
7000;DHT22;3540;53.242;10.408;2023-05-24T06:47:48;10.20;99.90
7000;DHT22;3540;53.242;10.408;2023-05-24T06:50:14;10.10;99.90
7000;DHT22;3540;53.242;10.408;2023-05-24T06:52:39;10.30;99.90
7000;DHT22;3540;53.242;10.408;2023-05-24T06:55:05;10.30;99.90
7000;DHT22;3540;53.242;10.408;2023-05-24T06:57:31;10.40;99.90
7000;DHT22;3540;53.242;10.408;2023-05-24T06:59:57;10.50;99.90
7000;DHT22;3540;53.242;10.408;2023-05-24T07:02:22;10.50;99.90
7000;DHT22;3540;53.242;10.408;2023-05-24T07:04:51;10.50;99.90
7000;DHT22;3540;53.242;10.408;2023-05-24T07:07:18;10.40;99.90
7000;DHT22;3540;53.242;10.408;2023-05-24T07:09:44;10.40;99.90
7000;DHT22;3540;53.242;10.408;2023-05-24T07:12:10;10.40;99.90
7000;DHT22;3540;53.242;10.408;2023-05-24T07:14:36;10.40;99.90
7000;DHT22;3540;53.242;10.408;2023-05-24T07:17:02;10.40;99.90
7000;DHT22;3540;53.242;10.408;2023-05-24T07:19:27;10.40;99.90
7000;DHT22;3540;53.242;10.408;2023-05-24T07:21:56;10.40;99.90
7000;DHT22;3540;53.242;10.408;2023-05-24T07:24:22;10.40;99.90
7000;DHT22;3540;53.242;10.408;2023-05-24T07:26:49;10.30;99.90
7000;DHT22;3540;53.242;10.408;2023-05-24T07:29:15;10.20;99.90
7000;DHT22;3540;53.242;10.408;2023-05-24T07:31:41;10.20;99.90
7000;DHT22;3540;53.242;10.408;2023-05-24T07:34:07;10.10;99.90
7000;DHT22;3540;53.242;10.408;2023-05-24T07:36:32;10.10;99.90
7000;DHT22;3540;53.242;10.408;2023-05-24T07:38:58;10.10;99.90
7000;DHT22;3540;53.242;10.408;2023-05-24T07:41:26;10.10;99.90
7000;DHT22;3540;53.242;10.408;2023-05-24T07:43:53;10.10;99.90
7000;DHT22;3540;53.242;10.408;2023-05-24T07:46:19;10.00;99.90
7000;DHT22;3540;53.242;10.408;2023-05-24T07:48:45;9.90;99.90
7000;DHT22;3540;53.242;10.408;2023-05-24T07:51:11;9.90;99.90
7000;DHT22;3540;53.242;10.408;2023-05-24T07:53:37;10.00;99.90
7000;DHT22;3540;53.242;10.408;2023-05-24T07:56:03;10.00;99.90
7000;DHT22;3540;53.242;10.408;2023-05-24T07:58:28;10.00;99.90
7000;DHT22;3540;53.242;10.408;2023-05-24T08:00:54;10.00;99.90
7000;DHT22;3540;53.242;10.408;2023-05-24T08:03:20;10.10;99.90
7000;DHT22;3540;53.242;10.408;2023-05-24T08:05:45;10.20;99.90
7000;DHT22;3540;53.242;10.408;2023-05-24T08:08:11;10.20;99.90
7000;DHT22;3540;53.242;10.408;2023-05-24T08:10:37;10.30;99.90
7000;DHT22;3540;53.242;10.408;2023-05-24T08:13:02;10.50;99.90
7000;DHT22;3540;53.242;10.408;2023-05-24T08:15:29;10.60;99.90
7000;DHT22;3540;53.242;10.408;2023-05-24T08:17:55;10.80;99.90
7000;DHT22;3540;53.242;10.408;2023-05-24T08:20:21;10.70;99.90
7000;DHT22;3540;53.242;10.408;2023-05-24T08:22:46;10.80;99.90
7000;DHT22;3540;53.242;10.408;2023-05-24T08:25:15;10.90;99.90
7000;DHT22;3540;53.242;10.408;2023-05-24T08:27:41;11.00;99.90
7000;DHT22;3540;53.242;10.408;2023-05-24T08:30:07;11.10;99.90
7000;DHT22;3540;53.242;10.408;2023-05-24T08:32:33;11.10;99.90
7000;DHT22;3540;53.242;10.408;2023-05-24T08:34:58;11.20;99.90
7000;DHT22;3540;53.242;10.408;2023-05-24T08:37:24;11.20;99.90
7000;DHT22;3540;53.242;10.408;2023-05-24T08:39:50;11.50;99.90
7000;DHT22;3540;53.242;10.408;2023-05-24T08:42:15;11.70;99.90
7000;DHT22;3540;53.242;10.408;2023-05-24T08:45:02;11.80;99.90
7000;DHT22;3540;53.242;10.408;2023-05-24T08:47:29;12.00;99.90
7000;DHT22;3540;53.242;10.408;2023-05-24T08:49:55;11.90;99.90
7000;DHT22;3540;53.242;10.408;2023-05-24T08:52:22;11.90;99.90
7000;DHT22;3540;53.242;10.408;2023-05-24T08:54:49;12.10;99.90
7000;DHT22;3540;53.242;10.408;2023-05-24T08:57:15;12.30;99.90
7000;DHT22;3540;53.242;10.408;2023-05-24T08:59:41;12.40;99.90
7000;DHT22;3540;53.242;10.408;2023-05-24T09:02:16;12.60;99.90
7000;DHT22;3540;53.242;10.408;2023-05-24T09:04:42;13.00;99.90
7000;DHT22;3540;53.242;10.408;2023-05-24T09:07:11;13.10;99.90
7000;DHT22;3540;53.242;10.408;2023-05-24T09:09:44;13.20;99.90
7000;DHT22;3540;53.242;10.408;2023-05-24T09:12:15;13.10;99.90
7000;DHT22;3540;53.242;10.408;2023-05-24T09:14:45;13.10;99.90
7000;DHT22;3540;53.242;10.408;2023-05-24T09:17:12;13.10;99.90
7000;DHT22;3540;53.242;10.408;2023-05-24T09:19:43;13.00;99.90
7000;DHT22;3540;53.242;10.408;2023-05-24T09:22:14;12.90;99.90
7000;DHT22;3540;53.242;10.408;2023-05-24T09:24:42;13.00;99.90
7000;DHT22;3540;53.242;10.408;2023-05-24T09:27:08;12.90;99.90
7000;DHT22;3540;53.242;10.408;2023-05-24T09:29:37;12.80;99.90
7000;DHT22;3540;53.242;10.408;2023-05-24T09:32:06;12.60;99.90
7000;DHT22;3540;53.242;10.408;2023-05-24T09:34:41;12.40;99.90
7000;DHT22;3540;53.242;10.408;2023-05-24T09:37:17;12.10;99.90
7000;DHT22;3540;53.242;10.408;2023-05-24T09:39:44;12.00;99.90
7000;DHT22;3540;53.242;10.408;2023-05-24T09:42:16;12.00;99.90
7000;DHT22;3540;53.242;10.408;2023-05-24T09:44:49;12.00;99.90
7000;DHT22;3540;53.242;10.408;2023-05-24T09:47:21;12.00;99.90
7000;DHT22;3540;53.242;10.408;2023-05-24T09:49:52;11.80;99.90
7000;DHT22;3540;53.242;10.408;2023-05-24T09:52:18;11.70;99.90
7000;DHT22;3540;53.242;10.408;2023-05-24T09:54:44;11.60;99.90
7000;DHT22;3540;53.242;10.408;2023-05-24T09:57:10;11.50;99.90
7000;DHT22;3540;53.242;10.408;2023-05-24T09:59:39;11.50;99.90
7000;DHT22;3540;53.242;10.408;2023-05-24T10:02:08;11.40;99.90
7000;DHT22;3540;53.242;10.408;2023-05-24T10:04:38;11.40;99.90
7000;DHT22;3540;53.242;10.408;2023-05-24T10:07:07;11.50;99.90
7000;DHT22;3540;53.242;10.408;2023-05-24T10:09:34;11.50;99.90
7000;DHT22;3540;53.242;10.408;2023-05-24T10:12:02;11.70;99.90
7000;DHT22;3540;53.242;10.408;2023-05-24T10:14:33;11.80;99.90
7000;DHT22;3540;53.242;10.408;2023-05-24T10:17:03;11.90;99.90
7000;DHT22;3540;53.242;10.408;2023-05-24T10:19:33;12.10;99.90
7000;DHT22;3540;53.242;10.408;2023-05-24T10:22:00;12.30;99.90
7000;DHT22;3540;53.242;10.408;2023-05-24T10:24:32;12.40;99.90
7000;DHT22;3540;53.242;10.408;2023-05-24T10:27:01;12.70;99.90
7000;DHT22;3540;53.242;10.408;2023-05-24T10:29:40;13.00;99.90
7000;DHT22;3540;53.242;10.408;2023-05-24T10:32:09;13.30;99.90
7000;DHT22;3540;53.242;10.408;2023-05-24T10:34:36;13.30;99.90
7000;DHT22;3540;53.242;10.408;2023-05-24T10:37:02;13.50;99.90
7000;DHT22;3540;53.242;10.408;2023-05-24T10:39:28;13.80;99.90
7000;DHT22;3540;53.242;10.408;2023-05-24T10:42:01;14.00;99.90
7000;DHT22;3540;53.242;10.408;2023-05-24T10:44:28;14.20;99.90
7000;DHT22;3540;53.242;10.408;2023-05-24T10:47:05;14.40;99.90
7000;DHT22;3540;53.242;10.408;2023-05-24T10:49:32;14.50;99.90
7000;DHT22;3540;53.242;10.408;2023-05-24T10:52:00;14.80;99.90
7000;DHT22;3540;53.242;10.408;2023-05-24T10:54:27;14.90;99.90
7000;DHT22;3540;53.242;10.408;2023-05-24T10:56:52;14.90;99.90
7000;DHT22;3540;53.242;10.408;2023-05-24T10:59:35;14.90;99.90
7000;DHT22;3540;53.242;10.408;2023-05-24T11:02:09;14.70;99.90
7000;DHT22;3540;53.242;10.408;2023-05-24T11:04:45;14.90;99.90
7000;DHT22;3540;53.242;10.408;2023-05-24T11:07:13;15.30;99.90
7000;DHT22;3540;53.242;10.408;2023-05-24T11:09:41;15.60;99.90
7000;DHT22;3540;53.242;10.408;2023-05-24T11:12:17;15.90;99.90
7000;DHT22;3540;53.242;10.408;2023-05-24T11:14:47;15.60;1.00
7000;DHT22;3540;53.242;10.408;2023-05-24T11:17:14;15.70;99.90
7000;DHT22;3540;53.242;10.408;2023-05-24T11:19:50;15.70;50.40
7000;DHT22;3540;53.242;10.408;2023-05-24T11:22:19;15.70;9.50
7000;DHT22;3540;53.242;10.408;2023-05-24T11:24:45;16.20;1.00
7000;DHT22;3540;53.242;10.408;2023-05-24T11:27:12;16.50;1.00
7000;DHT22;3540;53.242;10.408;2023-05-24T11:29:46;16.20;1.00
7000;DHT22;3540;53.242;10.408;2023-05-24T11:32:17;16.10;1.00
7000;DHT22;3540;53.242;10.408;2023-05-24T11:34:44;16.10;99.90
7000;DHT22;3540;53.242;10.408;2023-05-24T11:37:10;15.90;62.30
7000;DHT22;3540;53.242;10.408;2023-05-24T11:39:36;15.80;1.00
7000;DHT22;3540;53.242;10.408;2023-05-24T11:42:06;15.60;1.00
7000;DHT22;3540;53.242;10.408;2023-05-24T11:44:32;15.30;1.00
7000;DHT22;3540;53.242;10.408;2023-05-24T11:46:59;15.30;1.00
7000;DHT22;3540;53.242;10.408;2023-05-24T11:49:26;15.40;1.00
7000;DHT22;3540;53.242;10.408;2023-05-24T11:51:56;14.80;1.00
7000;DHT22;3540;53.242;10.408;2023-05-24T11:54:26;14.90;99.90
7000;DHT22;3540;53.242;10.408;2023-05-24T11:56:53;15.20;1.00
7000;DHT22;3540;53.242;10.408;2023-05-24T11:59:26;14.90;1.00
7000;DHT22;3540;53.242;10.408;2023-05-24T12:02:01;15.30;1.00
7000;DHT22;3540;53.242;10.408;2023-05-24T12:04:28;15.80;1.00
7000;DHT22;3540;53.242;10.408;2023-05-24T12:06:54;16.00;1.00
7000;DHT22;3540;53.242;10.408;2023-05-24T12:09:20;16.30;1.00
7000;DHT22;3540;53.242;10.408;2023-05-24T12:11:48;16.30;1.00
7000;DHT22;3540;53.242;10.408;2023-05-24T12:14:21;16.40;1.00
7000;DHT22;3540;53.242;10.408;2023-05-24T12:16:48;15.70;1.00
7000;DHT22;3540;53.242;10.408;2023-05-24T12:19:20;14.90;1.00
7000;DHT22;3540;53.242;10.408;2023-05-24T12:21:47;15.50;1.00
7000;DHT22;3540;53.242;10.408;2023-05-24T12:24:15;16.30;1.00
7000;DHT22;3540;53.242;10.408;2023-05-24T12:26:43;16.60;1.00
7000;DHT22;3540;53.242;10.408;2023-05-24T12:29:10;17.00;99.90
7000;DHT22;3540;53.242;10.408;2023-05-24T12:31:43;17.20;1.00
7000;DHT22;3540;53.242;10.408;2023-05-24T12:34:16;17.50;99.90
7000;DHT22;3540;53.242;10.408;2023-05-24T12:36:43;18.00;99.90
7000;DHT22;3540;53.242;10.408;2023-05-24T12:39:22;18.40;99.90
7000;DHT22;3540;53.242;10.408;2023-05-24T12:41:53;18.50;99.90
7000;DHT22;3540;53.242;10.408;2023-05-24T12:44:30;17.40;99.90
7000;DHT22;3540;53.242;10.408;2023-05-24T12:46:56;17.00;99.90
7000;DHT22;3540;53.242;10.408;2023-05-24T12:49:23;17.00;99.90
7000;DHT22;3540;53.242;10.408;2023-05-24T12:51:50;16.10;99.90
7000;DHT22;3540;53.242;10.408;2023-05-24T12:54:21;16.40;99.90
7000;DHT22;3540;53.242;10.408;2023-05-24T12:56:47;15.90;99.90
7000;DHT22;3540;53.242;10.408;2023-05-24T12:59:13;15.30;99.90
7000;DHT22;3540;53.242;10.408;2023-05-24T13:01:39;15.50;1.00
7000;DHT22;3540;53.242;10.408;2023-05-24T13:04:05;15.50;99.90
7000;DHT22;3540;53.242;10.408;2023-05-24T13:06:30;15.10;99.90
7000;DHT22;3540;53.242;10.408;2023-05-24T13:08:58;15.20;99.90
7000;DHT22;3540;53.242;10.408;2023-05-24T13:11:24;15.30;99.90
7000;DHT22;3540;53.242;10.408;2023-05-24T13:13:50;15.30;99.90
7000;DHT22;3540;53.242;10.408;2023-05-24T13:16:16;15.40;99.90
7000;DHT22;3540;53.242;10.408;2023-05-24T13:18:42;15.90;99.90
7000;DHT22;3540;53.242;10.408;2023-05-24T13:21:11;16.20;99.90
7000;DHT22;3540;53.242;10.408;2023-05-24T13:23:36;16.40;99.90
7000;DHT22;3540;53.242;10.408;2023-05-24T13:26:03;16.50;99.90
7000;DHT22;3540;53.242;10.408;2023-05-24T13:28:29;16.50;99.90
7000;DHT22;3540;53.242;10.408;2023-05-24T13:30:55;16.40;99.90
7000;DHT22;3540;53.242;10.408;2023-05-24T13:33:21;16.00;99.90
7000;DHT22;3540;53.242;10.408;2023-05-24T13:35:47;16.10;99.90
7000;DHT22;3540;53.242;10.408;2023-05-24T13:38:12;16.00;99.90
7000;DHT22;3540;53.242;10.408;2023-05-24T13:40:39;15.90;99.90
7000;DHT22;3540;53.242;10.408;2023-05-24T13:43:05;15.70;99.90
7000;DHT22;3540;53.242;10.408;2023-05-24T13:45:31;15.40;99.90
7000;DHT22;3540;53.242;10.408;2023-05-24T13:47:58;15.30;1.00
7000;DHT22;3540;53.242;10.408;2023-05-24T13:50:29;15.00;1.00
7000;DHT22;3540;53.242;10.408;2023-05-24T13:52:57;14.90;1.00
7000;DHT22;3540;53.242;10.408;2023-05-24T13:55:22;14.90;1.00
7000;DHT22;3540;53.242;10.408;2023-05-24T13:57:48;15.10;1.00
7000;DHT22;3540;53.242;10.408;2023-05-24T14:00:14;15.10;1.00
7000;DHT22;3540;53.242;10.408;2023-05-24T14:02:41;15.10;1.00
7000;DHT22;3540;53.242;10.408;2023-05-24T14:05:08;15.20;1.00
7000;DHT22;3540;53.242;10.408;2023-05-24T14:07:33;15.50;1.00
7000;DHT22;3540;53.242;10.408;2023-05-24T14:09:59;15.60;1.00
7000;DHT22;3540;53.242;10.408;2023-05-24T14:12:26;15.60;1.00
7000;DHT22;3540;53.242;10.408;2023-05-24T14:14:51;15.90;1.00
7000;DHT22;3540;53.242;10.408;2023-05-24T14:17:17;16.20;99.90
7000;DHT22;3540;53.242;10.408;2023-05-24T14:19:43;16.40;99.90
7000;DHT22;3540;53.242;10.408;2023-05-24T14:22:08;16.70;99.90
7000;DHT22;3540;53.242;10.408;2023-05-24T14:24:34;16.80;99.90
7000;DHT22;3540;53.242;10.408;2023-05-24T14:26:59;16.40;99.90
7000;DHT22;3540;53.242;10.408;2023-05-24T14:29:26;16.60;99.90
7000;DHT22;3540;53.242;10.408;2023-05-24T14:31:52;16.70;99.90
7000;DHT22;3540;53.242;10.408;2023-05-24T14:34:17;16.40;99.90
7000;DHT22;3540;53.242;10.408;2023-05-24T14:36:43;16.40;99.90
7000;DHT22;3540;53.242;10.408;2023-05-24T14:39:09;16.30;99.90
7000;DHT22;3540;53.242;10.408;2023-05-24T14:41:35;16.40;99.90
7000;DHT22;3540;53.242;10.408;2023-05-24T14:44:01;16.60;99.90
7000;DHT22;3540;53.242;10.408;2023-05-24T14:46:27;16.70;99.90
7000;DHT22;3540;53.242;10.408;2023-05-24T14:48:52;16.60;99.90
7000;DHT22;3540;53.242;10.408;2023-05-24T14:51:18;16.40;99.90
7000;DHT22;3540;53.242;10.408;2023-05-24T14:53:44;16.30;99.90
7000;DHT22;3540;53.242;10.408;2023-05-24T14:56:10;16.40;99.90
7000;DHT22;3540;53.242;10.408;2023-05-24T14:58:38;16.60;99.90
7000;DHT22;3540;53.242;10.408;2023-05-24T15:01:04;16.60;99.90
7000;DHT22;3540;53.242;10.408;2023-05-24T15:03:31;16.50;99.90
7000;DHT22;3540;53.242;10.408;2023-05-24T15:05:57;16.60;99.90
7000;DHT22;3540;53.242;10.408;2023-05-24T15:08:23;16.40;99.90
7000;DHT22;3540;53.242;10.408;2023-05-24T15:10:48;16.30;99.90
7000;DHT22;3540;53.242;10.408;2023-05-24T15:13:14;16.40;99.90
7000;DHT22;3540;53.242;10.408;2023-05-24T15:15:40;16.50;99.90
7000;DHT22;3540;53.242;10.408;2023-05-24T15:18:06;16.70;99.90
7000;DHT22;3540;53.242;10.408;2023-05-24T15:20:32;16.90;99.90
7000;DHT22;3540;53.242;10.408;2023-05-24T15:22:59;16.60;99.90
7000;DHT22;3540;53.242;10.408;2023-05-24T15:25:24;17.00;99.90
7000;DHT22;3540;53.242;10.408;2023-05-24T15:27:50;17.10;99.90
7000;DHT22;3540;53.242;10.408;2023-05-24T15:30:18;16.40;99.90
7000;DHT22;3540;53.242;10.408;2023-05-24T15:32:44;16.40;99.90
7000;DHT22;3540;53.242;10.408;2023-05-24T15:35:12;16.60;99.90
7000;DHT22;3540;53.242;10.408;2023-05-24T15:37:38;16.90;99.90
7000;DHT22;3540;53.242;10.408;2023-05-24T15:40:05;17.00;99.90
7000;DHT22;3540;53.242;10.408;2023-05-24T15:42:32;16.60;99.90
7000;DHT22;3540;53.242;10.408;2023-05-24T15:44:57;16.60;99.90
7000;DHT22;3540;53.242;10.408;2023-05-24T15:47:23;16.60;99.90
7000;DHT22;3540;53.242;10.408;2023-05-24T15:49:53;16.50;99.90
7000;DHT22;3540;53.242;10.408;2023-05-24T15:52:19;16.70;99.90
7000;DHT22;3540;53.242;10.408;2023-05-24T15:54:45;17.40;99.90
7000;DHT22;3540;53.242;10.408;2023-05-24T15:57:11;18.30;99.90
7000;DHT22;3540;53.242;10.408;2023-05-24T15:59:37;18.60;99.90
7000;DHT22;3540;53.242;10.408;2023-05-24T16:02:04;18.30;99.90
7000;DHT22;3540;53.242;10.408;2023-05-24T16:04:30;18.20;99.90
7000;DHT22;3540;53.242;10.408;2023-05-24T16:06:56;19.00;99.90